createdAt,value
2022-11-09T00:01:04.574Z,60.78
2022-11-09T00:03:32.073Z,59.75
2022-11-09T00:06:00.996Z,59.95
2022-11-09T00:08:29.046Z,58.10
2022-11-09T00:11:07.242Z,60.00
2022-11-09T00:13:40.133Z,56.70
2022-11-09T00:16:14.239Z,57.22
2022-11-09T00:18:47.451Z,61.10
2022-11-09T00:21:19.390Z,58.75
2022-11-09T00:23:46.897Z,59.45
2022-11-09T00:26:16.989Z,55.78
2022-11-09T00:28:44.543Z,58.03
2022-11-09T00:31:16.520Z,58.03
2022-11-09T00:33:43.820Z,63.63
2022-11-09T00:36:13.259Z,66.68
2022-11-09T00:38:41.296Z,64.97
2022-11-09T00:41:11.621Z,64.25
2022-11-09T00:43:38.904Z,62.38
2022-11-09T00:46:06.452Z,57.13
2022-11-09T00:48:35.001Z,62.67
2022-11-09T00:51:02.663Z,62.00
2022-11-09T00:53:31.467Z,54.95
2022-11-09T00:56:17.691Z,56.33
2022-11-09T00:58:44.899Z,53.10
2022-11-09T01:01:16.229Z,46.25
2022-11-09T01:03:45.683Z,46.55
2022-11-09T01:06:17.884Z,50.85
2022-11-09T01:08:46.335Z,52.50
2022-11-09T01:11:14.513Z,46.00
2022-11-09T01:13:41.837Z,51.33
2022-11-09T01:16:20.700Z,47.53
2022-11-09T01:18:48.621Z,46.72
2022-11-09T01:21:16.414Z,46.95
2022-11-09T01:23:44.066Z,44.42
2022-11-09T01:26:14.613Z,46.03
2022-11-09T01:28:42.662Z,49.55
2022-11-09T01:31:18.506Z,47.50
2022-11-09T01:33:46.778Z,47.55
2022-11-09T01:36:21.216Z,48.70
2022-11-09T01:38:49.380Z,48.35
2022-11-09T01:41:25.891Z,45.95
2022-11-09T01:44:22.387Z,45.75
2022-11-09T01:47:22.031Z,45.67
2022-11-09T01:49:59.616Z,45.55
2022-11-09T01:52:40.572Z,43.75
2022-11-09T01:55:23.216Z,49.08
2022-11-09T01:58:00.654Z,44.30
2022-11-09T02:00:28.981Z,45.47
2022-11-09T02:03:37.905Z,47.20
2022-11-09T02:06:10.119Z,44.33
2022-11-09T02:08:38.506Z,44.53
2022-11-09T02:11:12.328Z,50.58
2022-11-09T02:13:51.630Z,45.50
2022-11-09T02:16:19.521Z,44.97
2022-11-09T02:19:01.030Z,45.40
2022-11-09T02:21:32.242Z,43.85
2022-11-09T02:24:00.782Z,44.03
2022-11-09T02:26:48.028Z,43.95
2022-11-09T02:29:23.668Z,43.40
2022-11-09T02:31:58.899Z,41.88
2022-11-09T02:34:26.696Z,43.90
2022-11-09T02:36:54.666Z,44.92
2022-11-09T02:39:26.585Z,44.63
2022-11-09T02:42:19.947Z,42.88
2022-11-09T02:44:54.983Z,38.17
2022-11-09T02:47:22.398Z,39.08
2022-11-09T02:49:50.323Z,42.00
2022-11-09T02:52:19.161Z,41.80
2022-11-09T02:54:46.630Z,36.92
2022-11-09T02:57:13.817Z,37.80
2022-11-09T02:59:41.366Z,37.90
2022-11-09T03:02:08.685Z,35.28
2022-11-09T03:04:36.196Z,41.15
2022-11-09T03:07:03.418Z,41.70
2022-11-09T03:09:30.983Z,37.63
2022-11-09T03:11:58.126Z,39.67
2022-11-09T03:14:25.600Z,39.33
2022-11-09T03:16:52.822Z,40.95
2022-11-09T03:19:20.260Z,38.28
2022-11-09T03:21:47.460Z,37.42
2022-11-09T03:24:14.994Z,40.75
2022-11-09T03:26:42.141Z,39.30
2022-11-09T03:29:09.635Z,44.53
2022-11-09T03:31:36.793Z,38.50
2022-11-09T03:34:04.293Z,36.63
2022-11-09T03:36:31.509Z,35.92
2022-11-09T03:38:59.007Z,40.05
2022-11-09T03:41:26.153Z,41.22
2022-11-09T03:43:53.592Z,37.83
2022-11-09T03:46:20.778Z,37.42
2022-11-09T03:48:48.290Z,38.20
2022-11-09T03:51:15.521Z,39.55
2022-11-09T03:53:42.975Z,36.78
2022-11-09T03:56:10.179Z,38.55
2022-11-09T03:58:37.594Z,36.35
2022-11-09T04:01:04.763Z,38.88
2022-11-09T04:03:32.352Z,40.90
2022-11-09T04:06:00.193Z,38.53
2022-11-09T04:08:27.672Z,40.20
2022-11-09T04:10:55.244Z,43.72
2022-11-09T04:13:23.107Z,38.80
2022-11-09T04:15:50.377Z,39.67
2022-11-09T04:18:18.073Z,42.15
2022-11-09T04:20:45.306Z,38.72
2022-11-09T04:23:14.141Z,42.15
2022-11-09T04:25:42.325Z,39.35
2022-11-09T04:28:12.912Z,42.00
2022-11-09T04:30:40.675Z,44.55
2022-11-09T04:33:10.088Z,41.13
2022-11-09T04:35:37.315Z,39.90
2022-11-09T04:38:08.527Z,43.28
2022-11-09T04:40:36.797Z,44.95
2022-11-09T04:43:07.126Z,40.67
2022-11-09T04:45:35.777Z,42.38
2022-11-09T04:48:08.056Z,43.05
2022-11-09T04:50:35.641Z,46.55
2022-11-09T04:53:15.565Z,43.83
2022-11-09T04:55:43.377Z,43.83
2022-11-09T04:58:11.429Z,42.50
2022-11-09T05:00:39.196Z,41.83
2022-11-09T05:03:08.121Z,41.40
2022-11-09T05:05:37.861Z,40.60
2022-11-09T05:08:06.615Z,43.35
2022-11-09T05:10:34.933Z,42.92
2022-11-09T05:13:06.413Z,43.25
2022-11-09T05:15:35.497Z,43.55
2022-11-09T05:18:05.267Z,45.28
2022-11-09T05:20:33.161Z,45.97
2022-11-09T05:23:19.895Z,44.35
2022-11-09T05:25:47.908Z,46.20
2022-11-09T05:28:15.473Z,44.92
2022-11-09T05:30:42.696Z,44.55
2022-11-09T05:33:10.210Z,46.60
2022-11-09T05:35:37.459Z,44.05
2022-11-09T05:38:05.113Z,47.33
2022-11-09T05:40:33.544Z,45.55
2022-11-09T05:43:01.042Z,44.00
2022-11-09T05:45:44.149Z,46.10
2022-11-09T05:48:14.600Z,45.38
2022-11-09T05:50:42.883Z,46.35
2022-11-09T05:53:12.530Z,47.45
2022-11-09T05:55:40.158Z,46.90
2022-11-09T05:58:08.999Z,46.63
2022-11-09T06:00:36.908Z,45.13
2022-11-09T06:03:07.647Z,43.03
2022-11-09T06:05:36.619Z,43.60
2022-11-09T06:08:14.817Z,44.72
2022-11-09T06:10:43.575Z,46.95
2022-11-09T06:13:11.516Z,43.40
2022-11-09T06:15:38.875Z,44.67
2022-11-09T06:18:06.445Z,46.13
2022-11-09T06:20:33.724Z,45.83
2022-11-09T06:23:04.322Z,46.42
2022-11-09T06:25:33.473Z,49.78
2022-11-09T06:28:01.876Z,42.22
2022-11-09T06:30:29.122Z,39.50
2022-11-09T06:33:00.948Z,45.17
2022-11-09T06:35:28.579Z,42.17
2022-11-09T06:38:00.835Z,44.53
2022-11-09T06:40:28.957Z,46.20
2022-11-09T06:43:00.964Z,47.47
2022-11-09T06:45:30.275Z,46.13
2022-11-09T06:48:00.577Z,46.88
2022-11-09T06:50:31.353Z,49.65
2022-11-09T06:53:02.354Z,49.78
2022-11-09T06:55:31.497Z,44.30
2022-11-09T06:57:59.860Z,51.67
2022-11-09T07:00:28.446Z,48.58
2022-11-09T07:02:55.999Z,47.28
2022-11-09T07:05:24.406Z,49.10
2022-11-09T07:07:52.058Z,44.58
2022-11-09T07:10:19.777Z,44.10
2022-11-09T07:12:53.311Z,48.95
2022-11-09T07:15:20.564Z,45.35
2022-11-09T07:17:48.015Z,46.47
2022-11-09T07:20:15.850Z,45.63
2022-11-09T07:22:43.574Z,49.30
2022-11-09T07:25:13.130Z,51.40
2022-11-09T07:27:40.921Z,57.92
2022-11-09T07:30:09.480Z,51.05
2022-11-09T07:33:08.777Z,46.75
2022-11-09T07:35:27.210Z,52.70
2022-11-09T07:37:55.082Z,47.67
2022-11-09T07:40:22.373Z,50.72
2022-11-09T07:42:49.895Z,49.13
2022-11-09T07:45:17.187Z,45.70
2022-11-09T07:47:44.749Z,45.28
2022-11-09T07:50:11.896Z,42.97
2022-11-09T07:52:39.370Z,45.55
2022-11-09T07:55:07.191Z,46.17
2022-11-09T07:57:34.694Z,44.47
2022-11-09T08:00:01.987Z,45.70
2022-11-09T08:02:29.470Z,43.72
2022-11-09T08:04:56.704Z,44.15
2022-11-09T08:07:24.222Z,41.63
2022-11-09T08:09:51.419Z,42.60
2022-11-09T08:12:18.862Z,41.00
2022-11-09T08:14:46.014Z,41.20
2022-11-09T08:17:13.462Z,40.33
2022-11-09T08:19:40.662Z,37.58
2022-11-09T08:22:08.246Z,37.63
2022-11-09T08:24:35.449Z,35.72
2022-11-09T08:27:02.855Z,37.15
2022-11-09T08:29:30.013Z,35.72
2022-11-09T08:31:57.793Z,35.97
2022-11-09T08:34:25.020Z,34.55
2022-11-09T08:36:52.528Z,39.08
2022-11-09T08:39:23.162Z,38.08
2022-11-09T08:41:50.773Z,34.08
2022-11-09T08:44:18.262Z,36.40
2022-11-09T08:46:45.756Z,35.25
2022-11-09T08:49:13.450Z,34.97
2022-11-09T08:51:40.856Z,34.90
2022-11-09T08:54:09.123Z,33.60
2022-11-09T08:56:36.645Z,34.42
2022-11-09T08:59:03.856Z,33.20
2022-11-09T09:01:31.337Z,32.95
2022-11-09T09:03:58.526Z,34.47
2022-11-09T09:06:30.915Z,36.45
2022-11-09T09:08:58.733Z,34.97
2022-11-09T09:11:26.335Z,30.33
2022-11-09T09:13:53.494Z,34.47
2022-11-09T09:16:20.950Z,33.60
2022-11-09T09:18:49.278Z,31.80
2022-11-09T09:21:16.941Z,37.08
2022-11-09T09:23:44.264Z,31.33
2022-11-09T09:26:11.695Z,31.60
2022-11-09T09:28:39.095Z,26.17
2022-11-09T09:31:07.073Z,28.67
2022-11-09T09:33:34.430Z,26.35
2022-11-09T09:36:02.589Z,29.80
2022-11-09T09:38:30.522Z,29.30
2022-11-09T09:41:05.816Z,26.15
2022-11-09T09:43:48.891Z,24.63
2022-11-09T09:46:37.797Z,27.52
2022-11-09T09:49:17.341Z,25.95
2022-11-09T09:52:04.901Z,26.05
2022-11-09T09:54:41.164Z,22.63
2022-11-09T09:57:19.785Z,26.50
2022-11-09T09:59:58.192Z,28.98
2022-11-09T10:02:35.575Z,31.83
2022-11-09T10:05:13.107Z,27.77
2022-11-09T10:07:58.898Z,26.33
2022-11-09T10:10:48.356Z,28.05
2022-11-09T10:13:47.431Z,24.70
2022-11-09T10:16:54.596Z,21.75
2022-11-09T10:20:15.893Z,23.80
2022-11-09T10:23:07.159Z,20.02
2022-11-09T10:28:47.686Z,26.58
2022-11-09T10:31:22.195Z,20.50
2022-11-09T10:34:16.462Z,19.83
2022-11-09T10:37:13.582Z,18.45
2022-11-09T10:39:52.640Z,17.25
2022-11-09T10:42:20.109Z,19.50
2022-11-09T10:44:47.427Z,16.88
2022-11-09T10:47:17.738Z,18.23
2022-11-09T10:49:46.145Z,17.40
2022-11-09T10:52:47.041Z,16.77
2022-11-09T10:55:28.667Z,15.18
2022-11-09T10:58:24.537Z,14.88
2022-11-09T11:01:03.074Z,13.70
2022-11-09T11:03:38.995Z,14.25
2022-11-09T11:06:15.050Z,15.50
2022-11-09T11:08:46.847Z,14.38
2022-11-09T11:11:33.859Z,16.92
2022-11-09T11:14:34.522Z,15.40
2022-11-09T11:17:02.257Z,13.93
2022-11-09T11:19:32.416Z,14.95
2022-11-09T11:22:14.453Z,15.13
2022-11-09T11:24:53.596Z,14.88
2022-11-09T11:27:48.880Z,15.70
2022-11-09T11:30:28.563Z,17.60
2022-11-09T11:32:57.175Z,19.00
2022-11-09T11:35:39.927Z,16.67
2022-11-09T11:38:28.050Z,18.92
2022-11-09T11:41:35.971Z,18.80
2022-11-09T11:44:30.327Z,17.88
2022-11-09T11:47:28.452Z,18.75
2022-11-09T11:50:16.361Z,17.10
2022-11-09T11:53:09.224Z,15.75
2022-11-09T11:56:17.329Z,18.10
2022-11-09T11:59:20.161Z,14.90
2022-11-09T12:02:36.392Z,14.82
2022-11-09T12:05:28.541Z,17.58
2022-11-09T12:08:15.961Z,16.17
2022-11-09T12:11:29.821Z,15.35
2022-11-09T12:14:54.151Z,14.85
2022-11-09T12:18:19.184Z,18.10
2022-11-09T12:21:14.145Z,16.40
2022-11-09T12:24:18.563Z,16.48
2022-11-09T12:27:33.162Z,16.92
2022-11-09T12:30:14.099Z,15.50
2022-11-09T12:33:09.871Z,16.75
2022-11-09T12:35:57.703Z,16.75
2022-11-09T12:38:33.745Z,16.95
2022-11-09T12:41:24.753Z,14.48
2022-11-09T12:44:18.919Z,16.30
2022-11-09T12:47:07.055Z,16.65
2022-11-09T12:49:38.714Z,15.55
2022-11-09T12:52:15.019Z,16.13
2022-11-09T12:54:50.116Z,16.17
2022-11-09T12:57:30.453Z,17.00
2022-11-09T13:00:00.843Z,14.77
2022-11-09T13:02:51.746Z,17.88
2022-11-09T13:05:39.316Z,19.92
2022-11-09T13:08:23.949Z,18.08
2022-11-09T13:11:25.952Z,15.35
2022-11-09T13:14:22.255Z,15.77
2022-11-09T13:16:57.646Z,14.35
2022-11-09T13:19:40.130Z,17.20
2022-11-09T13:22:16.078Z,17.27
2022-11-09T13:24:57.271Z,17.10
2022-11-09T13:27:33.341Z,17.23
2022-11-09T13:30:02.454Z,17.98
2022-11-09T13:32:33.774Z,16.35
2022-11-09T13:35:04.003Z,18.42
2022-11-09T13:37:41.333Z,18.52
2022-11-09T13:40:30.634Z,17.88
2022-11-09T13:43:13.978Z,18.10
2022-11-09T13:45:53.268Z,19.83
2022-11-09T13:48:43.072Z,18.58
2022-11-09T13:51:36.159Z,15.68
2022-11-09T13:54:37.682Z,18.88
2022-11-09T13:57:07.126Z,17.48
2022-11-09T13:59:49.316Z,18.25
2022-11-09T14:02:22.744Z,20.80
2022-11-09T14:04:50.028Z,19.90
2022-11-09T14:07:34.060Z,20.67
2022-11-09T14:10:21.482Z,20.00
2022-11-09T14:13:13.917Z,20.75
2022-11-09T14:15:53.374Z,20.10
2022-11-09T14:19:03.689Z,19.70
2022-11-09T14:21:48.414Z,24.58
2022-11-09T14:24:29.714Z,24.25
2022-11-09T14:27:13.371Z,28.83
2022-11-09T14:29:53.317Z,28.75
2022-11-09T14:32:36.978Z,25.75
2022-11-09T14:35:34.132Z,34.08
2022-11-09T14:38:18.872Z,26.08
2022-11-09T14:40:49.821Z,25.88
2022-11-09T14:43:30.020Z,26.33
2022-11-09T14:46:03.948Z,25.38
2022-11-09T14:48:33.946Z,28.52
2022-11-09T14:51:06.727Z,28.65
2022-11-09T14:53:37.955Z,29.70
2022-11-09T14:56:09.650Z,27.40
2022-11-09T14:58:44.618Z,31.63
2022-11-09T15:01:20.005Z,29.52
2022-11-09T15:04:21.884Z,28.58
2022-11-09T15:06:56.858Z,29.02
2022-11-09T15:09:43.900Z,34.97
2022-11-09T15:12:20.968Z,32.72
2022-11-09T15:14:58.526Z,32.08
2022-11-09T15:17:33.276Z,36.95
2022-11-09T15:20:31.116Z,42.90
2022-11-09T15:23:20.960Z,46.95
2022-11-09T15:25:48.481Z,52.15
2022-11-09T15:28:29.064Z,42.83
2022-11-09T15:30:56.858Z,42.08
2022-11-09T15:33:58.055Z,40.15
2022-11-09T15:36:36.340Z,37.58
2022-11-09T15:39:17.558Z,37.97
2022-11-09T15:41:44.767Z,40.72
2022-11-09T15:44:14.527Z,40.45
2022-11-09T15:46:52.488Z,38.85
2022-11-09T15:49:25.633Z,42.17
2022-11-09T15:51:53.709Z,44.40
2022-11-09T15:54:24.174Z,42.90
2022-11-09T15:56:52.352Z,42.85
2022-11-09T15:59:26.222Z,42.28
2022-11-09T16:01:54.112Z,47.45
2022-11-09T16:04:21.349Z,45.30
2022-11-09T16:06:48.573Z,52.15
2022-11-09T16:09:16.165Z,47.97
2022-11-09T16:11:43.477Z,52.55
2022-11-09T16:14:10.766Z,52.40
2022-11-09T16:16:38.335Z,50.72
2022-11-09T16:19:05.718Z,50.75
2022-11-09T16:21:32.912Z,50.22
2022-11-09T16:24:00.368Z,45.92
2022-11-09T16:26:27.573Z,41.08
2022-11-09T16:28:55.334Z,41.70
2022-11-09T16:31:48.281Z,46.83
2022-11-09T16:34:10.063Z,47.35
2022-11-09T16:36:43.009Z,50.40
2022-11-09T16:39:17.342Z,52.95
2022-11-09T16:41:50.251Z,47.65
2022-11-09T16:44:23.957Z,51.92
2022-11-09T16:46:52.293Z,52.88
2022-11-09T16:49:19.587Z,60.47
2022-11-09T16:51:47.067Z,64.88
2022-11-09T16:54:14.270Z,66.70
2022-11-09T16:56:41.502Z,68.00
2022-11-09T16:59:09.015Z,60.45
2022-11-09T17:01:36.248Z,62.95
2022-11-09T17:04:03.505Z,64.40
2022-11-09T17:06:35.388Z,61.22
2022-11-09T17:09:02.955Z,64.03
2022-11-09T17:11:30.231Z,62.35
2022-11-09T17:13:59.751Z,61.33
2022-11-09T17:16:27.787Z,63.33
2022-11-09T17:18:57.026Z,60.33
2022-11-09T17:21:27.392Z,63.03
2022-11-09T17:23:57.460Z,64.45
2022-11-09T17:26:25.908Z,63.80
2022-11-09T17:28:53.668Z,64.00
2022-11-09T17:31:23.942Z,67.43
2022-11-09T17:33:51.188Z,61.72
2022-11-09T17:36:35.192Z,64.30
2022-11-09T17:39:07.104Z,70.82
2022-11-09T17:41:38.692Z,66.15
2022-11-09T17:44:08.779Z,67.68
2022-11-09T17:46:36.349Z,62.45
2022-11-09T17:49:08.708Z,60.50
2022-11-09T17:51:37.650Z,61.53
2022-11-09T17:54:05.422Z,64.28
2022-11-09T17:56:34.187Z,59.17
2022-11-09T17:59:04.035Z,60.88
2022-11-09T18:01:33.166Z,61.10
2022-11-09T18:04:08.627Z,67.03
2022-11-09T18:06:36.188Z,63.13
2022-11-09T18:09:39.101Z,68.90
2022-11-09T18:11:52.322Z,75.70
2022-11-09T18:14:19.915Z,83.40
2022-11-09T18:16:47.460Z,83.00
2022-11-09T18:19:14.715Z,82.25
2022-11-09T18:21:44.264Z,84.60
2022-11-09T18:24:11.785Z,76.20
2022-11-09T18:26:39.141Z,74.78
2022-11-09T18:29:06.417Z,76.60
2022-11-09T18:31:34.042Z,73.05
2022-11-09T18:34:01.357Z,78.28
2022-11-09T18:36:28.825Z,68.10
2022-11-09T18:38:56.359Z,68.97
2022-11-09T18:41:26.171Z,72.25
2022-11-09T18:43:54.236Z,70.57
2022-11-09T18:46:22.475Z,72.07
2022-11-09T18:48:53.140Z,66.40
2022-11-09T18:51:21.025Z,66.28
2022-11-09T18:53:49.795Z,71.80
2022-11-09T18:56:23.516Z,69.00
2022-11-09T18:58:55.105Z,73.60
2022-11-09T19:01:25.137Z,69.10
2022-11-09T19:03:58.956Z,63.72
2022-11-09T19:06:28.336Z,65.88
2022-11-09T19:09:14.465Z,62.47
2022-11-09T19:11:42.308Z,66.53
2022-11-09T19:14:11.601Z,64.25
2022-11-09T19:16:38.896Z,69.95
2022-11-09T19:19:06.451Z,64.15
2022-11-09T19:21:38.923Z,68.97
2022-11-09T19:24:07.968Z,71.82
2022-11-09T19:26:35.974Z,66.30
2022-11-09T19:29:04.167Z,65.93
2022-11-09T19:31:31.806Z,68.32
2022-11-09T19:33:59.646Z,69.80
2022-11-09T19:36:31.387Z,64.90
2022-11-09T19:39:01.242Z,72.28
2022-11-09T19:41:29.461Z,73.10
2022-11-09T19:43:58.845Z,78.85
2022-11-09T19:46:31.127Z,72.55
2022-11-09T19:48:58.925Z,69.75
2022-11-09T19:51:29.460Z,72.35
2022-11-09T19:53:59.123Z,65.40
2022-11-09T19:56:30.165Z,69.25
2022-11-09T19:59:01.146Z,66.97
2022-11-09T20:01:30.870Z,68.95
2022-11-09T20:04:00.974Z,66.47
2022-11-09T20:06:30.090Z,71.72
2022-11-09T20:09:00.643Z,64.60
2022-11-09T20:11:47.980Z,63.15
2022-11-09T20:14:15.685Z,61.70
2022-11-09T20:16:44.575Z,66.30
2022-11-09T20:19:14.287Z,68.60
2022-11-09T20:21:42.731Z,70.88
2022-11-09T20:24:12.431Z,66.43
2022-11-09T20:26:41.413Z,69.00
2022-11-09T20:29:08.730Z,66.25
2022-11-09T20:31:37.515Z,71.28
2022-11-09T20:34:06.008Z,69.65
2022-11-09T20:36:34.839Z,71.28
2022-11-09T20:39:02.449Z,75.90
2022-11-09T20:41:31.441Z,84.40
2022-11-09T20:43:59.223Z,77.03
2022-11-09T20:46:28.001Z,79.28
2022-11-09T20:48:57.595Z,78.63
2022-11-09T20:51:25.468Z,69.82
2022-11-09T20:53:52.977Z,69.28
2022-11-09T20:56:21.703Z,70.82
2022-11-09T20:58:49.783Z,74.38
2022-11-09T21:01:21.805Z,63.75
2022-11-09T21:03:52.079Z,63.42
2022-11-09T21:06:21.671Z,65.13
2022-11-09T21:08:53.922Z,61.78
2022-11-09T21:11:23.912Z,63.55
2022-11-09T21:13:53.787Z,65.53
2022-11-09T21:16:23.215Z,59.47
2022-11-09T21:18:50.486Z,59.08
2022-11-09T21:21:23.533Z,60.25
2022-11-09T21:24:09.840Z,60.00
2022-11-09T21:26:55.745Z,56.13
2022-11-09T21:29:43.390Z,55.20
2022-11-09T21:32:12.322Z,56.10
2022-11-09T21:34:39.888Z,56.70
2022-11-09T21:37:07.877Z,52.50
2022-11-09T21:39:36.068Z,56.58
2022-11-09T21:42:04.881Z,48.13
2022-11-09T21:44:34.114Z,52.60
2022-11-09T21:47:02.716Z,50.25
2022-11-09T21:49:30.769Z,54.97
2022-11-09T21:52:00.325Z,52.92
2022-11-09T21:54:28.551Z,50.25
2022-11-09T21:56:56.880Z,46.50
2022-11-09T21:59:24.568Z,54.53
2022-11-09T22:01:52.273Z,47.58
2022-11-09T22:04:19.867Z,52.38
2022-11-09T22:06:47.097Z,49.33
2022-11-09T22:09:18.859Z,45.70
2022-11-09T22:12:05.164Z,49.72
2022-11-09T22:14:50.802Z,44.30
2022-11-09T22:17:18.307Z,41.97
2022-11-09T22:20:04.230Z,50.63
2022-11-09T22:22:33.668Z,42.05
2022-11-09T22:25:00.836Z,48.10
2022-11-09T22:27:32.269Z,44.33
2022-11-09T22:29:59.790Z,43.97
2022-11-09T22:32:27.057Z,45.35
2022-11-09T22:34:54.612Z,48.92
2022-11-09T22:37:21.932Z,46.55
2022-11-09T22:39:49.140Z,46.45
2022-11-09T22:42:16.573Z,44.80
2022-11-09T22:44:43.753Z,48.55
2022-11-09T22:47:10.920Z,46.35
2022-11-09T22:49:38.471Z,46.65
2022-11-09T22:52:05.693Z,44.80
2022-11-09T22:54:33.106Z,46.60
2022-11-09T22:57:00.521Z,45.03
2022-11-09T22:59:27.682Z,44.92
2022-11-09T23:01:54.938Z,45.58
2022-11-09T23:04:22.638Z,45.88
2022-11-09T23:06:49.790Z,41.00
2022-11-09T23:09:17.035Z,42.90
2022-11-09T23:11:44.613Z,46.97
2022-11-09T23:14:31.803Z,42.97
2022-11-09T23:16:59.289Z,43.92
2022-11-09T23:19:26.410Z,40.17
2022-11-09T23:21:53.560Z,41.33
2022-11-09T23:24:39.649Z,41.70
2022-11-09T23:27:06.784Z,44.30
2022-11-09T23:29:34.243Z,41.53
2022-11-09T23:32:01.459Z,40.03
2022-11-09T23:34:28.898Z,40.30
2022-11-09T23:36:56.064Z,39.80
2022-11-09T23:39:23.278Z,38.70
2022-11-09T23:41:50.774Z,41.78
2022-11-09T23:44:17.926Z,42.75
2022-11-09T23:46:45.066Z,41.53
2022-11-09T23:49:12.457Z,43.60
2022-11-09T23:51:39.574Z,43.10
2022-11-09T23:54:06.904Z,39.95
2022-11-09T23:56:34.341Z,40.13
2022-11-09T23:59:01.491Z,40.50
